»·PEaware :: N65415 KAVX-KSAN

N65415 :: KAVX-KSAN

FLIGHT INFORMATION

Flight Status: Arrived
Operator: Privately registered:
United States
More flights under this callsign
Pilot: Stephane C. (508)
Aircraft: CESSNA 172 SKYHAWK
(C172)
More flights by this aircraft type
Origin: KAVX Catalina
United States
Destination: KSAN San Diego Intl-Lindbergh
United States
More flights between these airports :: More routes between these airports
Route: SXC V208 OCN V23 MZB
File this flight plan on PilotEdge
Remarks: I8 rating
Altitude:
(Current/Filed)
5,000ft
Speed:
(Current/Filed)
110kts
Departed: 01-Dec-17 08:37 AM
Arrived: 01-Dec-17 09:37 AM
Distance/Time
Traveled:
74nm/1:00
Distance/Time
To Go:
Arrived

Flight Plot

Page will automatically refresh every two minutes.


Map Options




Map Legend


Flown Route
Filed Route
Departure Airport
Arrival Airport
Navaid (VOR, NDB)
Fix

Horizontal Profiles

Position Reports

Time Latitude Longitude Heading Altitude Ground
Speed
01-Dec-17 08:27 33.403119 -118.415859 33 1557ft 0kts
01-Dec-17 08:28 33.403119 -118.415859 33 1557ft 0kts
01-Dec-17 08:29 33.403119 -118.415859 33 1557ft 0kts
01-Dec-17 08:30 33.403119 -118.415859 33 1557ft 0kts
01-Dec-17 08:31 33.403119 -118.415859 33 1557ft 0kts
01-Dec-17 08:32 33.403119 -118.415859 33 1557ft 0kts
01-Dec-17 08:33 33.403119 -118.415859 33 1557ft 0kts
01-Dec-17 08:34 33.403119 -118.415859 33 1557ft 0kts
01-Dec-17 08:35 33.403119 -118.415859 33 1557ft 0kts
01-Dec-17 08:36 33.404101 -118.414997 357 1557ft 10kts
01-Dec-17 08:37 33.406277 -118.412905 53 1557ft 9kts
01-Dec-17 08:38 33.407241 -118.411380 330 1557ft 0kts
01-Dec-17 08:39 33.407241 -118.411380 331 1557ft 0kts
01-Dec-17 08:40 33.407241 -118.411380 331 1557ft 0kts
01-Dec-17 08:41 33.407287 -118.411899 234 1557ft 0kts
01-Dec-17 08:42 33.404835 -118.416055 235 1573ft 68kts
01-Dec-17 08:43 33.393630 -118.437600 234 2295ft 78kts
01-Dec-17 08:44 33.375746 -118.430529 108 2991ft 82kts
01-Dec-17 08:45 33.373298 -118.402706 96 3663ft 83kts
01-Dec-17 08:46 33.369134 -118.374674 99 4313ft 86kts
01-Dec-17 08:47 33.364298 -118.346266 101 4939ft 88kts
01-Dec-17 08:48 33.358677 -118.311587 99 4999ft 117kts
01-Dec-17 08:49 33.352943 -118.273238 99 4974ft 117kts
01-Dec-17 08:50 33.347041 -118.235124 102 4965ft 116kts
01-Dec-17 08:51 33.340922 -118.197535 96 4983ft 115kts
01-Dec-17 08:52 33.336434 -118.159243 95 4997ft 113kts
01-Dec-17 08:53 33.332978 -118.121621 94 5036ft 114kts
01-Dec-17 08:54 33.329970 -118.083363 97 5013ft 116kts
01-Dec-17 08:55 33.324904 -118.044992 99 4985ft 117kts
01-Dec-17 08:56 33.319640 -118.007189 97 5022ft 114kts
01-Dec-17 08:57 33.314854 -117.969124 97 5001ft 116kts
01-Dec-17 08:58 33.310340 -117.930686 96 4991ft 116kts
01-Dec-17 08:59 33.306556 -117.892445 97 4994ft 116kts
01-Dec-17 09:00 33.301956 -117.854411 98 5005ft 116kts
01-Dec-17 09:01 33.294988 -117.816843 96 4989ft 116kts
01-Dec-17 09:02 33.291611 -117.778405 97 4985ft 116kts
01-Dec-17 09:03 33.286174 -117.740836 103 5041ft 114kts
01-Dec-17 09:04 33.279712 -117.703519 95 5055ft 115kts
01-Dec-17 09:05 33.275137 -117.665337 96 5048ft 115kts
01-Dec-17 09:06 33.270386 -117.627235 97 5036ft 116kts
01-Dec-17 09:07 33.265683 -117.588526 96 4983ft 118kts
01-Dec-17 09:08 33.261159 -117.549539 96 4963ft 116kts
01-Dec-17 09:09 33.255497 -117.511339 98 4955ft 117kts
01-Dec-17 09:10 33.248974 -117.473564 100 4983ft 116kts
01-Dec-17 09:11 33.242674 -117.435567 98 4994ft 116kts
01-Dec-17 09:12 33.224910 -117.406803 158 5041ft 115kts
01-Dec-17 09:13 33.194101 -117.394226 162 5083ft 115kts
01-Dec-17 09:14 33.161949 -117.384479 166 5012ft 121kts
01-Dec-17 09:15 33.130018 -117.373134 158 5013ft 114kts
01-Dec-17 09:16 33.100943 -117.357820 151 4949ft 113kts
01-Dec-17 09:17 33.073350 -117.344784 159 4982ft 109kts
01-Dec-17 09:18 33.043870 -117.333440 160 4972ft 112kts
01-Dec-17 09:19 33.014739 -117.321430 159 4961ft 113kts
01-Dec-17 09:20 32.985123 -117.309208 160 4966ft 115kts
01-Dec-17 09:21 32.955492 -117.295599 158 4963ft 116kts
01-Dec-17 09:22 32.925441 -117.281592 158 4944ft 116kts
01-Dec-17 09:23 32.895697 -117.269991 162 4967ft 115kts
01-Dec-17 09:24 32.865469 -117.259064 164 4976ft 115kts
01-Dec-17 09:25 32.835194 -117.247527 157 5019ft 113kts
01-Dec-17 09:26 32.805476 -117.233987 159 5014ft 115kts
01-Dec-17 09:27 32.776148 -117.220158 131 5038ft 114kts
01-Dec-17 09:28 32.770529 -117.183417 97 4961ft 115kts
01-Dec-17 09:29 32.763662 -117.146831 99 4938ft 115kts
01-Dec-17 09:30 32.756875 -117.110545 101 4951ft 112kts
01-Dec-17 09:31 32.750734 -117.074219 99 4969ft 110kts
01-Dec-17 09:32 32.745023 -117.038535 99 5002ft 112kts
01-Dec-17 09:33 32.739313 -117.002099 101 4981ft 113kts
01-Dec-17 09:34 32.712511 -116.993103 190 4432ft 116kts
01-Dec-17 09:35 32.691356 -117.011597 281 3514ft 104kts
01-Dec-17 09:36 32.697154 -117.039707 286 2881ft 82kts
01-Dec-17 09:37 32.703544 -117.066788 288 2461ft 86kts
01-Dec-17 09:38 32.710308 -117.094562 289 1921ft 89kts
01-Dec-17 09:39 32.716994 -117.121594 290 1319ft 80kts
01-Dec-17 09:40 32.723337 -117.147553 290 755ft 82kts
01-Dec-17 09:41 32.729209 -117.171772 289 264ft 68kts
01-Dec-17 09:42 32.733006 -117.187393 286 17ft 4kts
01-Dec-17 09:43 32.733805 -117.185934 105 17ft 23kts
01-Dec-17 09:44 32.732385 -117.180055 105 18ft 18kts
01-Dec-17 09:45 32.732252 -117.176886 221 28ft 1kts
01-Dec-17 09:46 32.732173 -117.176922 196 28ft 0kts
01-Dec-17 09:47 32.732173 -117.176922 196 28ft 0kts
01-Dec-17 09:48 32.732173 -117.176922 196 28ft 0kts
01-Dec-17 09:49 32.732173 -117.176922 196 28ft 0kts

Navigation Log

Ident Type
1. KAVX Airport
2. SXC Navaid
3. AVOLS Fix
4. PACIF Fix
5. HUBRD Fix
6. OCN Navaid
7. HURSI Fix
8. CARIF Fix
9. MZB Navaid
10. KSAN Airport